Cacouna, Canada
Current Conditions -  °F | °C
As of 1:53 PM on Wednesday 26 Nov 2014 (Local Time) from KFVE Reporting Station
Few Clouds Few Clouds  
Wind Chill: 21°   Ceiling: Unl
Heat Index: 28°   Visibility: 10mi
Dew Point: 15°   Wind: 7mph
Humidity: 58%   Direction: 350°N
Pressure: 30.17"   Gusts: NA
Location:  47.91°N, 69.51°W
Report Text: KFVE 261853Z AUTO 35006KT 10SM FEW120 M02/M09 A3017 RMK AO2 SLP226 T10221094
Loading
Personal Weather Stations






























Interactive Weather Map New forecast layout! Learn more

10-Day Weather Forecast

Advertisements
Track Severe Weather on mobile